Terminal Aerodrome Forecast
Issued by NWS

Home | Current Version | Previous Version | Text Only | Print | Product List | Glossary On
Versions: 1 2 3 4 5 6 7 8 9 10 11 12 13 14 15 16 17 18
000
FTUS46 KLOX 200558 CCA
TAFSBA
TAF COR
KSBA 200558Z 2006/2106 25005KT P6SM BKN010
     FM200730 VRB03KT P6SM OVC014
     FM201000 12004KT 5SM -DZ BR BKN009 OVC019
     FM201700 17007KT P6SM BKN024
     FM202000 21008KT P6SM SCT024
     FM210400 VRB03KT P6SM SCT012=

USA.gov is the U.S. government's official web portal to all federal, state and local government web resources and services.